sensor_id;sensor_type;location;lat;lon;timestamp;P1;durP1;ratioP1;P2;durP2;ratioP2
24206;SDS011;12351;52.284;9.160;2023-12-04T00:00:15;16.97;;;9.00;;
24206;SDS011;12351;52.284;9.160;2023-12-04T00:03:02;17.53;;;8.90;;
24206;SDS011;12351;52.284;9.160;2023-12-04T00:05:48;16.23;;;9.10;;
24206;SDS011;12351;52.284;9.160;2023-12-04T00:08:36;16.23;;;8.30;;
24206;SDS011;12351;52.284;9.160;2023-12-04T00:11:23;15.07;;;8.03;;
24206;SDS011;12351;52.284;9.160;2023-12-04T00:14:10;16.67;;;8.63;;
24206;SDS011;12351;52.284;9.160;2023-12-04T00:16:58;14.77;;;8.10;;
24206;SDS011;12351;52.284;9.160;2023-12-04T00:19:45;15.17;;;8.20;;
24206;SDS011;12351;52.284;9.160;2023-12-04T00:22:32;13.80;;;8.07;;
24206;SDS011;12351;52.284;9.160;2023-12-04T00:25:19;17.07;;;8.60;;
24206;SDS011;12351;52.284;9.160;2023-12-04T00:28:05;16.07;;;8.63;;
24206;SDS011;12351;52.284;9.160;2023-12-04T00:30:52;14.43;;;7.77;;
24206;SDS011;12351;52.284;9.160;2023-12-04T00:33:41;13.00;;;7.83;;
24206;SDS011;12351;52.284;9.160;2023-12-04T00:36:28;15.27;;;8.30;;
24206;SDS011;12351;52.284;9.160;2023-12-04T00:39:15;14.17;;;8.07;;
24206;SDS011;12351;52.284;9.160;2023-12-04T00:42:02;15.13;;;8.20;;
24206;SDS011;12351;52.284;9.160;2023-12-04T00:44:49;13.33;;;7.70;;
24206;SDS011;12351;52.284;9.160;2023-12-04T00:47:36;13.17;;;7.70;;
24206;SDS011;12351;52.284;9.160;2023-12-04T00:50:23;14.47;;;8.13;;
24206;SDS011;12351;52.284;9.160;2023-12-04T00:53:10;16.03;;;8.47;;
24206;SDS011;12351;52.284;9.160;2023-12-04T00:55:57;13.30;;;7.70;;
24206;SDS011;12351;52.284;9.160;2023-12-04T00:58:45;15.10;;;8.17;;
24206;SDS011;12351;52.284;9.160;2023-12-04T01:01:34;14.00;;;7.63;;
24206;SDS011;12351;52.284;9.160;2023-12-04T01:04:22;14.20;;;8.30;;
24206;SDS011;12351;52.284;9.160;2023-12-04T01:07:10;15.40;;;7.93;;
24206;SDS011;12351;52.284;9.160;2023-12-04T01:09:58;15.33;;;7.80;;
24206;SDS011;12351;52.284;9.160;2023-12-04T01:12:47;14.93;;;8.03;;
24206;SDS011;12351;52.284;9.160;2023-12-04T01:15:33;14.93;;;8.00;;
24206;SDS011;12351;52.284;9.160;2023-12-04T01:18:24;13.60;;;7.43;;
24206;SDS011;12351;52.284;9.160;2023-12-04T01:21:12;14.17;;;7.83;;
24206;SDS011;12351;52.284;9.160;2023-12-04T01:23:59;11.80;;;7.37;;
24206;SDS011;12351;52.284;9.160;2023-12-04T01:26:46;11.13;;;7.10;;
24206;SDS011;12351;52.284;9.160;2023-12-04T01:29:33;13.00;;;7.00;;
24206;SDS011;12351;52.284;9.160;2023-12-04T01:32:20;12.43;;;7.47;;
24206;SDS011;12351;52.284;9.160;2023-12-04T01:35:06;13.30;;;7.13;;
24206;SDS011;12351;52.284;9.160;2023-12-04T01:37:53;12.07;;;6.77;;
24206;SDS011;12351;52.284;9.160;2023-12-04T01:40:41;11.87;;;6.73;;
24206;SDS011;12351;52.284;9.160;2023-12-04T01:43:27;12.50;;;6.77;;
24206;SDS011;12351;52.284;9.160;2023-12-04T01:46:15;11.90;;;6.70;;
24206;SDS011;12351;52.284;9.160;2023-12-04T01:49:03;12.07;;;6.23;;
24206;SDS011;12351;52.284;9.160;2023-12-04T01:51:50;12.83;;;6.47;;
24206;SDS011;12351;52.284;9.160;2023-12-04T01:54:38;15.37;;;7.43;;
24206;SDS011;12351;52.284;9.160;2023-12-04T01:57:25;13.57;;;6.67;;
24206;SDS011;12351;52.284;9.160;2023-12-04T02:00:12;12.07;;;6.43;;
24206;SDS011;12351;52.284;9.160;2023-12-04T02:03:00;10.87;;;6.13;;
24206;SDS011;12351;52.284;9.160;2023-12-04T02:05:47;12.67;;;6.83;;
24206;SDS011;12351;52.284;9.160;2023-12-04T02:08:35;11.00;;;6.03;;
24206;SDS011;12351;52.284;9.160;2023-12-04T02:11:22;13.20;;;6.50;;
24206;SDS011;12351;52.284;9.160;2023-12-04T02:14:09;11.33;;;6.20;;
24206;SDS011;12351;52.284;9.160;2023-12-04T02:16:58;10.73;;;5.83;;
24206;SDS011;12351;52.284;9.160;2023-12-04T02:19:46;11.30;;;6.13;;
24206;SDS011;12351;52.284;9.160;2023-12-04T02:22:35;11.77;;;6.83;;
24206;SDS011;12351;52.284;9.160;2023-12-04T02:25:23;13.33;;;6.87;;
24206;SDS011;12351;52.284;9.160;2023-12-04T02:28:11;13.53;;;5.90;;
24206;SDS011;12351;52.284;9.160;2023-12-04T02:31:00;10.20;;;5.53;;
24206;SDS011;12351;52.284;9.160;2023-12-04T02:33:54;11.00;;;6.42;;
24206;SDS011;12351;52.284;9.160;2023-12-04T02:36:46;10.10;;;5.77;;
24206;SDS011;12351;52.284;9.160;2023-12-04T02:39:34;12.00;;;5.77;;
24206;SDS011;12351;52.284;9.160;2023-12-04T02:42:22;10.07;;;5.80;;
24206;SDS011;12351;52.284;9.160;2023-12-04T02:45:10;9.47;;;5.67;;
24206;SDS011;12351;52.284;9.160;2023-12-04T02:47:57;11.57;;;6.10;;
24206;SDS011;12351;52.284;9.160;2023-12-04T02:50:45;12.03;;;6.67;;
24206;SDS011;12351;52.284;9.160;2023-12-04T02:53:32;11.73;;;5.67;;
24206;SDS011;12351;52.284;9.160;2023-12-04T02:56:18;9.87;;;5.90;;
24206;SDS011;12351;52.284;9.160;2023-12-04T02:59:05;12.60;;;6.50;;
24206;SDS011;12351;52.284;9.160;2023-12-04T03:01:52;11.57;;;6.43;;
24206;SDS011;12351;52.284;9.160;2023-12-04T03:04:40;10.20;;;6.13;;
24206;SDS011;12351;52.284;9.160;2023-12-04T03:07:27;11.50;;;6.13;;
24206;SDS011;12351;52.284;9.160;2023-12-04T03:10:14;10.43;;;5.97;;
24206;SDS011;12351;52.284;9.160;2023-12-04T03:13:02;12.30;;;6.27;;
24206;SDS011;12351;52.284;9.160;2023-12-04T03:15:49;9.73;;;5.97;;
24206;SDS011;12351;52.284;9.160;2023-12-04T03:18:36;10.93;;;6.07;;
24206;SDS011;12351;52.284;9.160;2023-12-04T03:21:23;11.70;;;6.70;;
24206;SDS011;12351;52.284;9.160;2023-12-04T03:24:10;12.00;;;6.50;;
24206;SDS011;12351;52.284;9.160;2023-12-04T03:27:00;10.30;;;6.40;;
24206;SDS011;12351;52.284;9.160;2023-12-04T03:29:46;9.13;;;5.60;;
24206;SDS011;12351;52.284;9.160;2023-12-04T03:32:34;11.43;;;6.03;;
24206;SDS011;12351;52.284;9.160;2023-12-04T03:35:21;11.57;;;5.83;;
24206;SDS011;12351;52.284;9.160;2023-12-04T03:38:07;9.57;;;5.93;;
24206;SDS011;12351;52.284;9.160;2023-12-04T03:40:54;10.60;;;5.87;;
24206;SDS011;12351;52.284;9.160;2023-12-04T03:43:42;10.17;;;5.80;;
24206;SDS011;12351;52.284;9.160;2023-12-04T03:46:29;9.43;;;5.60;;
24206;SDS011;12351;52.284;9.160;2023-12-04T03:49:15;8.97;;;5.60;;
24206;SDS011;12351;52.284;9.160;2023-12-04T03:52:02;9.80;;;6.07;;
24206;SDS011;12351;52.284;9.160;2023-12-04T03:54:49;8.53;;;5.37;;
24206;SDS011;12351;52.284;9.160;2023-12-04T03:57:36;10.03;;;5.67;;
24206;SDS011;12351;52.284;9.160;2023-12-04T04:00:23;10.77;;;6.00;;
24206;SDS011;12351;52.284;9.160;2023-12-04T04:03:10;11.43;;;5.93;;
24206;SDS011;12351;52.284;9.160;2023-12-04T04:05:57;12.03;;;6.03;;
24206;SDS011;12351;52.284;9.160;2023-12-04T04:08:45;9.87;;;5.73;;
24206;SDS011;12351;52.284;9.160;2023-12-04T04:11:32;10.20;;;5.70;;
24206;SDS011;12351;52.284;9.160;2023-12-04T04:14:18;10.87;;;5.70;;
24206;SDS011;12351;52.284;9.160;2023-12-04T04:17:05;12.67;;;6.70;;
24206;SDS011;12351;52.284;9.160;2023-12-04T04:19:52;8.77;;;5.43;;
24206;SDS011;12351;52.284;9.160;2023-12-04T04:22:41;10.83;;;5.87;;
24206;SDS011;12351;52.284;9.160;2023-12-04T04:25:27;10.37;;;6.10;;
24206;SDS011;12351;52.284;9.160;2023-12-04T04:28:14;9.80;;;6.03;;
24206;SDS011;12351;52.284;9.160;2023-12-04T04:31:00;9.97;;;6.20;;
24206;SDS011;12351;52.284;9.160;2023-12-04T04:33:47;10.30;;;5.97;;
24206;SDS011;12351;52.284;9.160;2023-12-04T04:36:35;10.07;;;5.40;;
24206;SDS011;12351;52.284;9.160;2023-12-04T04:39:22;11.53;;;6.30;;
24206;SDS011;12351;52.284;9.160;2023-12-04T04:42:10;12.30;;;6.20;;
24206;SDS011;12351;52.284;9.160;2023-12-04T04:44:57;12.53;;;6.50;;
24206;SDS011;12351;52.284;9.160;2023-12-04T04:47:44;9.17;;;5.53;;
24206;SDS011;12351;52.284;9.160;2023-12-04T04:50:32;11.23;;;6.13;;
24206;SDS011;12351;52.284;9.160;2023-12-04T04:53:19;10.43;;;5.87;;
24206;SDS011;12351;52.284;9.160;2023-12-04T04:56:07;9.87;;;5.30;;
24206;SDS011;12351;52.284;9.160;2023-12-04T04:58:55;11.07;;;5.70;;
24206;SDS011;12351;52.284;9.160;2023-12-04T05:01:43;10.20;;;5.73;;
24206;SDS011;12351;52.284;9.160;2023-12-04T05:04:30;8.87;;;5.23;;
24206;SDS011;12351;52.284;9.160;2023-12-04T05:07:17;8.90;;;5.37;;
24206;SDS011;12351;52.284;9.160;2023-12-04T05:10:05;10.77;;;5.97;;
24206;SDS011;12351;52.284;9.160;2023-12-04T05:12:52;9.37;;;5.13;;
24206;SDS011;12351;52.284;9.160;2023-12-04T05:15:41;9.50;;;5.57;;
24206;SDS011;12351;52.284;9.160;2023-12-04T05:18:28;8.10;;;4.70;;
24206;SDS011;12351;52.284;9.160;2023-12-04T05:21:15;10.80;;;6.00;;
24206;SDS011;12351;52.284;9.160;2023-12-04T05:24:02;10.10;;;5.47;;
24206;SDS011;12351;52.284;9.160;2023-12-04T05:26:50;9.77;;;5.70;;
24206;SDS011;12351;52.284;9.160;2023-12-04T05:32:25;9.37;;;5.20;;
24206;SDS011;12351;52.284;9.160;2023-12-04T05:35:12;9.20;;;5.60;;
24206;SDS011;12351;52.284;9.160;2023-12-04T05:40:54;10.37;;;5.53;;
24206;SDS011;12351;52.284;9.160;2023-12-04T05:43:42;9.90;;;5.63;;
24206;SDS011;12351;52.284;9.160;2023-12-04T05:46:28;10.10;;;5.53;;
24206;SDS011;12351;52.284;9.160;2023-12-04T05:49:17;8.50;;;5.17;;
24206;SDS011;12351;52.284;9.160;2023-12-04T05:52:04;8.90;;;4.87;;
24206;SDS011;12351;52.284;9.160;2023-12-04T05:54:51;11.50;;;5.37;;
24206;SDS011;12351;52.284;9.160;2023-12-04T05:57:40;8.17;;;5.07;;
24206;SDS011;12351;52.284;9.160;2023-12-04T06:00:27;10.80;;;6.10;;
24206;SDS011;12351;52.284;9.160;2023-12-04T06:03:13;8.80;;;5.33;;
24206;SDS011;12351;52.284;9.160;2023-12-04T06:06:00;9.10;;;5.23;;
24206;SDS011;12351;52.284;9.160;2023-12-04T06:08:46;8.60;;;5.20;;
24206;SDS011;12351;52.284;9.160;2023-12-04T06:11:33;9.63;;;5.03;;
24206;SDS011;12351;52.284;9.160;2023-12-04T06:14:20;8.20;;;5.00;;
24206;SDS011;12351;52.284;9.160;2023-12-04T06:17:07;8.93;;;5.43;;
24206;SDS011;12351;52.284;9.160;2023-12-04T06:19:54;8.80;;;5.37;;
24206;SDS011;12351;52.284;9.160;2023-12-04T06:22:42;9.27;;;5.30;;
24206;SDS011;12351;52.284;9.160;2023-12-04T06:25:29;11.73;;;6.03;;
24206;SDS011;12351;52.284;9.160;2023-12-04T06:28:15;11.37;;;5.73;;
24206;SDS011;12351;52.284;9.160;2023-12-04T06:31:02;10.10;;;5.60;;
24206;SDS011;12351;52.284;9.160;2023-12-04T06:33:49;9.67;;;5.53;;
24206;SDS011;12351;52.284;9.160;2023-12-04T06:36:37;10.17;;;5.43;;
24206;SDS011;12351;52.284;9.160;2023-12-04T06:39:25;9.57;;;5.53;;
24206;SDS011;12351;52.284;9.160;2023-12-04T06:42:15;9.37;;;5.10;;
24206;SDS011;12351;52.284;9.160;2023-12-04T06:45:01;10.47;;;5.63;;
24206;SDS011;12351;52.284;9.160;2023-12-04T06:47:50;8.87;;;5.50;;
24206;SDS011;12351;52.284;9.160;2023-12-04T06:50:38;9.23;;;5.43;;
24206;SDS011;12351;52.284;9.160;2023-12-04T06:53:27;8.87;;;5.53;;
24206;SDS011;12351;52.284;9.160;2023-12-04T06:56:14;9.50;;;5.47;;
24206;SDS011;12351;52.284;9.160;2023-12-04T06:59:01;9.73;;;5.43;;
24206;SDS011;12351;52.284;9.160;2023-12-04T07:01:48;8.63;;;5.20;;
24206;SDS011;12351;52.284;9.160;2023-12-04T07:04:36;11.00;;;6.17;;
24206;SDS011;12351;52.284;9.160;2023-12-04T07:07:22;9.80;;;5.97;;
24206;SDS011;12351;52.284;9.160;2023-12-04T07:10:09;8.63;;;5.03;;
24206;SDS011;12351;52.284;9.160;2023-12-04T07:12:58;9.63;;;5.57;;
24206;SDS011;12351;52.284;9.160;2023-12-04T07:15:45;11.00;;;5.60;;
24206;SDS011;12351;52.284;9.160;2023-12-04T07:18:31;8.83;;;5.43;;
24206;SDS011;12351;52.284;9.160;2023-12-04T07:21:18;9.00;;;5.07;;
24206;SDS011;12351;52.284;9.160;2023-12-04T07:24:06;8.93;;;5.37;;
24206;SDS011;12351;52.284;9.160;2023-12-04T07:26:53;9.97;;;5.97;;
24206;SDS011;12351;52.284;9.160;2023-12-04T07:29:41;11.57;;;5.87;;
24206;SDS011;12351;52.284;9.160;2023-12-04T07:32:29;8.63;;;4.87;;
24206;SDS011;12351;52.284;9.160;2023-12-04T07:35:17;8.13;;;5.20;;
24206;SDS011;12351;52.284;9.160;2023-12-04T07:38:03;8.03;;;4.80;;
24206;SDS011;12351;52.284;9.160;2023-12-04T07:40:50;9.23;;;5.60;;
24206;SDS011;12351;52.284;9.160;2023-12-04T07:43:38;9.40;;;5.27;;
24206;SDS011;12351;52.284;9.160;2023-12-04T07:46:25;7.53;;;4.87;;
24206;SDS011;12351;52.284;9.160;2023-12-04T07:49:11;9.20;;;5.27;;
24206;SDS011;12351;52.284;9.160;2023-12-04T07:51:59;9.00;;;5.37;;
24206;SDS011;12351;52.284;9.160;2023-12-04T07:54:45;9.83;;;5.50;;
24206;SDS011;12351;52.284;9.160;2023-12-04T07:57:32;9.60;;;5.37;;
24206;SDS011;12351;52.284;9.160;2023-12-04T08:00:19;9.53;;;5.57;;
24206;SDS011;12351;52.284;9.160;2023-12-04T08:03:07;9.43;;;5.47;;
24206;SDS011;12351;52.284;9.160;2023-12-04T08:05:54;9.43;;;5.50;;
24206;SDS011;12351;52.284;9.160;2023-12-04T08:08:43;8.40;;;5.20;;
24206;SDS011;12351;52.284;9.160;2023-12-04T08:11:29;8.30;;;4.90;;
24206;SDS011;12351;52.284;9.160;2023-12-04T08:14:16;7.40;;;4.90;;
24206;SDS011;12351;52.284;9.160;2023-12-04T08:17:03;8.43;;;4.90;;
24206;SDS011;12351;52.284;9.160;2023-12-04T08:22:39;9.63;;;5.33;;
24206;SDS011;12351;52.284;9.160;2023-12-04T08:25:26;7.93;;;4.83;;
24206;SDS011;12351;52.284;9.160;2023-12-04T08:28:12;8.73;;;5.20;;
24206;SDS011;12351;52.284;9.160;2023-12-04T08:30:59;9.10;;;5.00;;
24206;SDS011;12351;52.284;9.160;2023-12-04T08:33:46;9.70;;;5.47;;
24206;SDS011;12351;52.284;9.160;2023-12-04T08:36:33;7.77;;;5.07;;
24206;SDS011;12351;52.284;9.160;2023-12-04T08:39:20;8.57;;;5.17;;
24206;SDS011;12351;52.284;9.160;2023-12-04T08:42:07;8.03;;;5.07;;
24206;SDS011;12351;52.284;9.160;2023-12-04T08:47:41;9.13;;;5.03;;
24206;SDS011;12351;52.284;9.160;2023-12-04T08:50:28;8.10;;;5.03;;
24206;SDS011;12351;52.284;9.160;2023-12-04T08:53:15;9.67;;;5.30;;
24206;SDS011;12351;52.284;9.160;2023-12-04T08:56:02;8.13;;;4.80;;
24206;SDS011;12351;52.284;9.160;2023-12-04T08:58:49;6.93;;;4.47;;
24206;SDS011;12351;52.284;9.160;2023-12-04T09:01:35;9.03;;;5.70;;
24206;SDS011;12351;52.284;9.160;2023-12-04T09:04:23;8.60;;;5.27;;
24206;SDS011;12351;52.284;9.160;2023-12-04T09:07:09;7.87;;;4.90;;
24206;SDS011;12351;52.284;9.160;2023-12-04T09:09:56;9.20;;;5.60;;
24206;SDS011;12351;52.284;9.160;2023-12-04T09:12:44;9.13;;;4.93;;
24206;SDS011;12351;52.284;9.160;2023-12-04T09:15:30;8.73;;;5.20;;
24206;SDS011;12351;52.284;9.160;2023-12-04T09:18:17;8.57;;;5.40;;
24206;SDS011;12351;52.284;9.160;2023-12-04T09:21:04;8.33;;;5.13;;
24206;SDS011;12351;52.284;9.160;2023-12-04T09:23:53;8.97;;;5.30;;
24206;SDS011;12351;52.284;9.160;2023-12-04T09:26:41;9.23;;;5.60;;
24206;SDS011;12351;52.284;9.160;2023-12-04T09:29:28;9.67;;;5.40;;
24206;SDS011;12351;52.284;9.160;2023-12-04T09:32:15;8.30;;;4.87;;
24206;SDS011;12351;52.284;9.160;2023-12-04T09:35:02;9.70;;;5.33;;
24206;SDS011;12351;52.284;9.160;2023-12-04T09:37:49;8.53;;;5.07;;
24206;SDS011;12351;52.284;9.160;2023-12-04T09:40:37;8.63;;;5.00;;
24206;SDS011;12351;52.284;9.160;2023-12-04T09:43:23;10.13;;;5.40;;
24206;SDS011;12351;52.284;9.160;2023-12-04T09:46:13;8.83;;;5.30;;
24206;SDS011;12351;52.284;9.160;2023-12-04T09:49:02;8.43;;;4.77;;
24206;SDS011;12351;52.284;9.160;2023-12-04T09:51:49;10.00;;;5.73;;
24206;SDS011;12351;52.284;9.160;2023-12-04T09:54:37;10.03;;;6.10;;
24206;SDS011;12351;52.284;9.160;2023-12-04T09:57:24;10.80;;;6.30;;
24206;SDS011;12351;52.284;9.160;2023-12-04T10:00:11;8.33;;;5.13;;
24206;SDS011;12351;52.284;9.160;2023-12-04T10:03:01;9.23;;;5.40;;
24206;SDS011;12351;52.284;9.160;2023-12-04T10:05:48;7.20;;;4.53;;
24206;SDS011;12351;52.284;9.160;2023-12-04T10:08:35;14.47;;;8.47;;
24206;SDS011;12351;52.284;9.160;2023-12-04T10:11:22;10.47;;;6.43;;
24206;SDS011;12351;52.284;9.160;2023-12-04T10:14:14;9.17;;;5.43;;
24206;SDS011;12351;52.284;9.160;2023-12-04T10:20:03;14.30;;;8.57;;
24206;SDS011;12351;52.284;9.160;2023-12-04T10:25:36;10.00;;;5.13;;
24206;SDS011;12351;52.284;9.160;2023-12-04T10:28:23;10.43;;;6.67;;
24206;SDS011;12351;52.284;9.160;2023-12-04T10:31:10;9.60;;;5.50;;
24206;SDS011;12351;52.284;9.160;2023-12-04T10:33:58;7.13;;;4.60;;
24206;SDS011;12351;52.284;9.160;2023-12-04T10:36:45;7.67;;;4.53;;
24206;SDS011;12351;52.284;9.160;2023-12-04T10:39:36;7.57;;;4.77;;
24206;SDS011;12351;52.284;9.160;2023-12-04T10:42:24;7.27;;;4.60;;
24206;SDS011;12351;52.284;9.160;2023-12-04T10:45:10;11.57;;;7.07;;
24206;SDS011;12351;52.284;9.160;2023-12-04T10:47:57;6.60;;;4.67;;
24206;SDS011;12351;52.284;9.160;2023-12-04T10:50:45;7.43;;;4.40;;
24206;SDS011;12351;52.284;9.160;2023-12-04T10:53:32;6.90;;;4.27;;
24206;SDS011;12351;52.284;9.160;2023-12-04T10:56:20;9.40;;;5.90;;
24206;SDS011;12351;52.284;9.160;2023-12-04T10:59:11;9.43;;;5.83;;
24206;SDS011;12351;52.284;9.160;2023-12-04T11:01:59;7.77;;;4.87;;
24206;SDS011;12351;52.284;9.160;2023-12-04T11:04:49;7.20;;;4.20;;
24206;SDS011;12351;52.284;9.160;2023-12-04T11:07:40;7.47;;;4.80;;
24206;SDS011;12351;52.284;9.160;2023-12-04T11:10:28;8.00;;;4.53;;
24206;SDS011;12351;52.284;9.160;2023-12-04T11:13:21;12.30;;;7.60;;
24206;SDS011;12351;52.284;9.160;2023-12-04T11:21:51;6.17;;;4.07;;
24206;SDS011;12351;52.284;9.160;2023-12-04T11:24:41;7.40;;;4.43;;
24206;SDS011;12351;52.284;9.160;2023-12-04T11:27:28;6.93;;;4.20;;
24206;SDS011;12351;52.284;9.160;2023-12-04T11:30:14;10.83;;;6.50;;
24206;SDS011;12351;52.284;9.160;2023-12-04T11:33:01;14.23;;;8.57;;
24206;SDS011;12351;52.284;9.160;2023-12-04T11:35:49;6.30;;;4.10;;
24206;SDS011;12351;52.284;9.160;2023-12-04T11:38:36;14.80;;;9.53;;
24206;SDS011;12351;52.284;9.160;2023-12-04T11:41:24;5.93;;;4.30;;
24206;SDS011;12351;52.284;9.160;2023-12-04T11:44:12;7.10;;;5.23;;
24206;SDS011;12351;52.284;9.160;2023-12-04T11:47:02;9.23;;;5.83;;
24206;SDS011;12351;52.284;9.160;2023-12-04T11:49:49;12.03;;;6.23;;
24206;SDS011;12351;52.284;9.160;2023-12-04T11:52:36;9.00;;;4.97;;
24206;SDS011;12351;52.284;9.160;2023-12-04T11:55:23;7.17;;;5.07;;
24206;SDS011;12351;52.284;9.160;2023-12-04T11:58:12;6.90;;;4.57;;
24206;SDS011;12351;52.284;9.160;2023-12-04T12:01:01;8.17;;;5.37;;
24206;SDS011;12351;52.284;9.160;2023-12-04T12:03:50;7.17;;;4.23;;
24206;SDS011;12351;52.284;9.160;2023-12-04T12:06:36;8.37;;;5.10;;
24206;SDS011;12351;52.284;9.160;2023-12-04T12:09:25;6.80;;;4.30;;
24206;SDS011;12351;52.284;9.160;2023-12-04T12:12:12;6.67;;;4.40;;
24206;SDS011;12351;52.284;9.160;2023-12-04T12:15:01;5.90;;;3.97;;
24206;SDS011;12351;52.284;9.160;2023-12-04T12:17:50;7.57;;;4.37;;
24206;SDS011;12351;52.284;9.160;2023-12-04T12:20:37;9.20;;;5.20;;
24206;SDS011;12351;52.284;9.160;2023-12-04T12:23:24;7.00;;;4.47;;
24206;SDS011;12351;52.284;9.160;2023-12-04T12:26:11;6.43;;;4.27;;
24206;SDS011;12351;52.284;9.160;2023-12-04T12:28:58;5.17;;;3.77;;
24206;SDS011;12351;52.284;9.160;2023-12-04T12:31:45;9.67;;;4.77;;
24206;SDS011;12351;52.284;9.160;2023-12-04T12:34:32;6.37;;;4.50;;
24206;SDS011;12351;52.284;9.160;2023-12-04T12:37:21;7.97;;;4.23;;
24206;SDS011;12351;52.284;9.160;2023-12-04T12:40:09;9.97;;;4.90;;
24206;SDS011;12351;52.284;9.160;2023-12-04T12:45:46;6.57;;;3.90;;
24206;SDS011;12351;52.284;9.160;2023-12-04T12:48:33;6.73;;;3.87;;
24206;SDS011;12351;52.284;9.160;2023-12-04T12:51:20;6.97;;;4.23;;
24206;SDS011;12351;52.284;9.160;2023-12-04T12:54:07;9.57;;;6.20;;
24206;SDS011;12351;52.284;9.160;2023-12-04T12:56:54;6.23;;;3.90;;
24206;SDS011;12351;52.284;9.160;2023-12-04T12:59:47;8.47;;;4.73;;
24206;SDS011;12351;52.284;9.160;2023-12-04T13:02:35;7.03;;;4.73;;
24206;SDS011;12351;52.284;9.160;2023-12-04T13:05:22;6.40;;;4.23;;
24206;SDS011;12351;52.284;9.160;2023-12-04T13:08:09;6.90;;;4.40;;
24206;SDS011;12351;52.284;9.160;2023-12-04T13:10:57;6.67;;;4.20;;
24206;SDS011;12351;52.284;9.160;2023-12-04T13:13:43;6.00;;;4.00;;
24206;SDS011;12351;52.284;9.160;2023-12-04T13:16:30;5.80;;;3.93;;
24206;SDS011;12351;52.284;9.160;2023-12-04T13:19:17;5.50;;;4.10;;
24206;SDS011;12351;52.284;9.160;2023-12-04T13:22:04;7.07;;;4.30;;
24206;SDS011;12351;52.284;9.160;2023-12-04T13:24:52;6.03;;;4.03;;
24206;SDS011;12351;52.284;9.160;2023-12-04T13:27:41;6.20;;;4.13;;
24206;SDS011;12351;52.284;9.160;2023-12-04T13:30:28;6.33;;;3.90;;
24206;SDS011;12351;52.284;9.160;2023-12-04T13:33:14;7.00;;;4.40;;
24206;SDS011;12351;52.284;9.160;2023-12-04T13:36:01;6.73;;;4.20;;
24206;SDS011;12351;52.284;9.160;2023-12-04T13:38:48;6.57;;;3.70;;
24206;SDS011;12351;52.284;9.160;2023-12-04T13:41:35;7.30;;;3.93;;
24206;SDS011;12351;52.284;9.160;2023-12-04T13:44:23;8.03;;;4.23;;
24206;SDS011;12351;52.284;9.160;2023-12-04T13:47:10;5.40;;;3.87;;
24206;SDS011;12351;52.284;9.160;2023-12-04T13:49:57;6.27;;;4.10;;
24206;SDS011;12351;52.284;9.160;2023-12-04T13:52:44;5.37;;;3.63;;
24206;SDS011;12351;52.284;9.160;2023-12-04T13:55:32;7.23;;;3.70;;
24206;SDS011;12351;52.284;9.160;2023-12-04T13:58:20;5.13;;;3.70;;
24206;SDS011;12351;52.284;9.160;2023-12-04T14:01:08;6.20;;;4.30;;
24206;SDS011;12351;52.284;9.160;2023-12-04T14:03:59;7.07;;;4.67;;
24206;SDS011;12351;52.284;9.160;2023-12-04T14:06:47;5.60;;;3.93;;
24206;SDS011;12351;52.284;9.160;2023-12-04T14:09:35;6.70;;;3.90;;
24206;SDS011;12351;52.284;9.160;2023-12-04T14:12:21;6.33;;;4.03;;
24206;SDS011;12351;52.284;9.160;2023-12-04T14:15:07;5.17;;;3.70;;
24206;SDS011;12351;52.284;9.160;2023-12-04T14:17:54;5.83;;;4.00;;
24206;SDS011;12351;52.284;9.160;2023-12-04T14:20:43;6.10;;;3.70;;
24206;SDS011;12351;52.284;9.160;2023-12-04T14:23:29;6.20;;;4.07;;
24206;SDS011;12351;52.284;9.160;2023-12-04T14:26:17;8.23;;;4.67;;
24206;SDS011;12351;52.284;9.160;2023-12-04T14:29:03;13.93;;;7.30;;
24206;SDS011;12351;52.284;9.160;2023-12-04T14:31:52;12.73;;;7.20;;
24206;SDS011;12351;52.284;9.160;2023-12-04T14:34:39;13.57;;;7.63;;
24206;SDS011;12351;52.284;9.160;2023-12-04T14:37:26;14.80;;;8.07;;
24206;SDS011;12351;52.284;9.160;2023-12-04T14:40:14;9.30;;;5.37;;
24206;SDS011;12351;52.284;9.160;2023-12-04T14:43:01;6.93;;;4.60;;
24206;SDS011;12351;52.284;9.160;2023-12-04T14:45:49;7.10;;;4.30;;
24206;SDS011;12351;52.284;9.160;2023-12-04T14:48:36;6.47;;;4.27;;
24206;SDS011;12351;52.284;9.160;2023-12-04T14:51:25;6.07;;;3.93;;
24206;SDS011;12351;52.284;9.160;2023-12-04T14:54:12;5.63;;;3.77;;
24206;SDS011;12351;52.284;9.160;2023-12-04T14:57:00;5.63;;;3.80;;
24206;SDS011;12351;52.284;9.160;2023-12-04T14:59:48;5.67;;;3.83;;
24206;SDS011;12351;52.284;9.160;2023-12-04T15:02:37;9.53;;;5.87;;
24206;SDS011;12351;52.284;9.160;2023-12-04T15:05:28;10.27;;;6.60;;
24206;SDS011;12351;52.284;9.160;2023-12-04T15:08:17;7.03;;;5.03;;
24206;SDS011;12351;52.284;9.160;2023-12-04T15:11:05;7.30;;;4.70;;
24206;SDS011;12351;52.284;9.160;2023-12-04T15:13:53;6.27;;;4.17;;
24206;SDS011;12351;52.284;9.160;2023-12-04T15:16:41;8.03;;;4.97;;
24206;SDS011;12351;52.284;9.160;2023-12-04T15:19:29;7.07;;;4.57;;
24206;SDS011;12351;52.284;9.160;2023-12-04T15:22:16;5.13;;;3.70;;
24206;SDS011;12351;52.284;9.160;2023-12-04T15:25:04;6.00;;;3.53;;
24206;SDS011;12351;52.284;9.160;2023-12-04T15:27:52;7.57;;;4.40;;
24206;SDS011;12351;52.284;9.160;2023-12-04T15:30:40;5.83;;;3.70;;
24206;SDS011;12351;52.284;9.160;2023-12-04T15:33:27;6.33;;;4.50;;
24206;SDS011;12351;52.284;9.160;2023-12-04T15:36:15;6.53;;;4.43;;
24206;SDS011;12351;52.284;9.160;2023-12-04T15:39:02;7.13;;;4.30;;
24206;SDS011;12351;52.284;9.160;2023-12-04T15:41:49;5.73;;;4.10;;
24206;SDS011;12351;52.284;9.160;2023-12-04T15:44:36;8.87;;;5.33;;
24206;SDS011;12351;52.284;9.160;2023-12-04T15:47:24;13.73;;;8.00;;
24206;SDS011;12351;52.284;9.160;2023-12-04T15:50:11;11.77;;;5.70;;
24206;SDS011;12351;52.284;9.160;2023-12-04T15:52:59;8.90;;;5.67;;
24206;SDS011;12351;52.284;9.160;2023-12-04T15:55:47;15.50;;;7.70;;
24206;SDS011;12351;52.284;9.160;2023-12-04T15:58:33;13.27;;;6.40;;
24206;SDS011;12351;52.284;9.160;2023-12-04T16:01:21;8.70;;;5.33;;
24206;SDS011;12351;52.284;9.160;2023-12-04T16:04:08;7.70;;;4.70;;
24206;SDS011;12351;52.284;9.160;2023-12-04T16:06:54;7.40;;;4.73;;
24206;SDS011;12351;52.284;9.160;2023-12-04T16:09:41;6.23;;;4.30;;
24206;SDS011;12351;52.284;9.160;2023-12-04T16:12:28;5.30;;;3.57;;
24206;SDS011;12351;52.284;9.160;2023-12-04T16:15:15;6.93;;;4.30;;
24206;SDS011;12351;52.284;9.160;2023-12-04T16:18:03;6.33;;;3.77;;
24206;SDS011;12351;52.284;9.160;2023-12-04T16:20:57;6.10;;;3.73;;
24206;SDS011;12351;52.284;9.160;2023-12-04T16:23:44;5.03;;;3.60;;
24206;SDS011;12351;52.284;9.160;2023-12-04T16:26:39;5.83;;;3.58;;
24206;SDS011;12351;52.284;9.160;2023-12-04T16:29:26;5.07;;;3.50;;
24206;SDS011;12351;52.284;9.160;2023-12-04T16:32:14;5.60;;;3.60;;
24206;SDS011;12351;52.284;9.160;2023-12-04T16:35:01;5.70;;;3.60;;
24206;SDS011;12351;52.284;9.160;2023-12-04T16:37:48;5.70;;;3.60;;
24206;SDS011;12351;52.284;9.160;2023-12-04T16:40:36;5.50;;;3.57;;
24206;SDS011;12351;52.284;9.160;2023-12-04T16:43:23;5.00;;;3.53;;
24206;SDS011;12351;52.284;9.160;2023-12-04T16:46:11;8.40;;;4.80;;
24206;SDS011;12351;52.284;9.160;2023-12-04T16:48:59;7.70;;;4.57;;
24206;SDS011;12351;52.284;9.160;2023-12-04T16:51:45;8.50;;;5.03;;
24206;SDS011;12351;52.284;9.160;2023-12-04T16:54:32;7.30;;;4.97;;
24206;SDS011;12351;52.284;9.160;2023-12-04T16:57:19;8.77;;;5.27;;
24206;SDS011;12351;52.284;9.160;2023-12-04T17:00:06;7.30;;;4.60;;
24206;SDS011;12351;52.284;9.160;2023-12-04T17:02:54;7.53;;;4.90;;
24206;SDS011;12351;52.284;9.160;2023-12-04T17:05:41;7.83;;;4.60;;
24206;SDS011;12351;52.284;9.160;2023-12-04T17:08:28;7.77;;;4.90;;